createdAt,value
2017-02-17T12:56:09.252Z,6152
2017-02-17T12:56:30.662Z,6116
2017-02-17T12:56:52.612Z,6072
2017-02-17T12:57:14.008Z,6080
2017-02-17T12:57:35.403Z,6152
2017-02-17T12:57:56.772Z,6044
2017-02-17T12:58:18.123Z,5820
2017-02-17T12:58:39.486Z,5628
2017-02-17T12:59:00.816Z,5484
2017-02-17T12:59:22.148Z,5436
2017-02-17T12:59:43.512Z,5428
2017-02-17T13:00:04.938Z,5424
2017-02-17T13:00:26.361Z,5464
2017-02-17T13:00:47.758Z,5588
2017-02-17T13:01:09.112Z,5788
2017-02-17T13:01:30.495Z,6012
2017-02-17T13:01:51.872Z,6060
2017-02-17T13:02:13.265Z,6256
2017-02-17T13:02:34.646Z,6264
2017-02-17T13:02:56.021Z,6112
2017-02-17T13:03:17.403Z,5996
2017-02-17T13:03:38.751Z,5920
2017-02-17T13:04:00.140Z,6000
2017-02-17T13:04:21.568Z,6096
2017-02-17T13:04:42.961Z,6276
2017-02-17T13:05:04.311Z,6476
2017-02-17T13:05:25.658Z,6732
2017-02-17T13:05:47.062Z,6996
2017-02-17T13:06:08.493Z,7308
2017-02-17T13:06:29.865Z,7392
2017-02-17T13:06:51.254Z,7288
2017-02-17T13:07:12.633Z,7056
2017-02-17T13:07:34.020Z,6904
2017-02-17T13:07:55.381Z,6924
2017-02-17T13:08:16.798Z,6920
2017-02-17T13:08:38.168Z,6840
2017-02-17T13:08:59.599Z,6700
2017-02-17T13:09:20.948Z,6572
2017-02-17T13:09:42.310Z,6292
2017-02-17T13:10:03.706Z,6000
2017-02-17T13:10:25.103Z,5884
2017-02-17T13:10:46.515Z,5676
2017-02-17T13:11:07.936Z,5500
2017-02-17T13:11:29.307Z,5588
2017-02-17T13:11:50.700Z,5776
2017-02-17T13:12:12.079Z,6060
2017-02-17T13:12:33.453Z,6284
2017-02-17T13:12:55.001Z,6272
2017-02-17T13:13:16.396Z,6584
2017-02-17T13:13:37.779Z,7044
2017-02-17T13:13:59.262Z,7236
2017-02-17T13:14:20.675Z,7304
2017-02-17T13:14:42.151Z,7416
2017-02-17T13:15:03.508Z,7444
2017-02-17T13:15:24.875Z,7456
2017-02-17T13:15:46.263Z,7472
2017-02-17T13:16:07.634Z,7572
2017-02-17T13:16:29.022Z,7760
2017-02-17T13:16:50.412Z,7884
2017-02-17T13:17:11.791Z,7880
2017-02-17T13:17:33.196Z,7920
2017-02-17T13:17:54.576Z,7900
2017-02-17T13:18:15.958Z,7768
2017-02-17T13:18:37.349Z,7664
2017-02-17T13:18:58.722Z,7528
2017-02-17T13:19:20.103Z,7428
2017-02-17T13:19:41.459Z,7392
2017-02-17T13:20:02.815Z,7236
2017-02-17T13:20:24.209Z,7236
2017-02-17T13:20:45.566Z,7480
2017-02-17T13:21:06.938Z,7932
2017-02-17T13:21:28.304Z,8088
2017-02-17T13:21:49.702Z,8152
2017-02-17T13:22:11.105Z,8028
2017-02-17T13:22:32.462Z,7924
2017-02-17T13:22:53.884Z,7880
2017-02-17T13:23:15.259Z,7848
2017-02-17T13:23:36.626Z,7756
2017-02-17T13:23:57.992Z,7748
2017-02-17T13:24:19.368Z,7824
2017-02-17T13:24:40.744Z,7884
2017-02-17T13:25:02.093Z,7972
2017-02-17T13:25:23.485Z,8120
2017-02-17T13:25:44.858Z,8148
2017-02-17T13:26:06.247Z,8108
2017-02-17T13:26:27.613Z,8008
2017-02-17T13:26:49.141Z,7804
2017-02-17T13:27:10.506Z,7760
2017-02-17T13:27:31.935Z,7816
2017-02-17T13:27:53.337Z,7748
2017-02-17T13:28:14.715Z,7736
2017-02-17T13:28:36.074Z,7648
2017-02-17T13:28:57.439Z,7516
2017-02-17T13:29:18.830Z,7376
2017-02-17T13:29:40.221Z,7492
2017-02-17T13:30:01.608Z,7556
2017-02-17T13:30:22.983Z,7600
2017-02-17T13:30:44.362Z,7752
2017-02-17T13:31:05.730Z,7848
2017-02-17T13:31:27.076Z,7764
2017-02-17T13:31:48.423Z,7588
2017-02-17T13:32:09.805Z,7440
2017-02-17T13:32:31.171Z,7240
2017-02-17T13:32:52.501Z,6868
2017-02-17T13:33:13.863Z,6508
2017-02-17T13:33:35.230Z,6256
2017-02-17T13:33:56.625Z,6008
2017-02-17T13:34:17.989Z,6064
2017-02-17T13:34:39.358Z,6088
2017-02-17T13:35:00.711Z,6192
2017-02-17T13:35:22.088Z,6064
2017-02-17T13:35:43.444Z,5948
2017-02-17T13:36:04.818Z,5960
2017-02-17T13:36:26.159Z,5748
2017-02-17T13:36:47.535Z,5564
2017-02-17T13:37:08.887Z,5632
2017-02-17T13:37:30.261Z,5376
2017-02-17T13:37:51.607Z,5436
2017-02-17T13:38:13.011Z,5644
2017-02-17T13:38:34.373Z,5844
2017-02-17T13:38:55.736Z,5888
2017-02-17T13:39:17.103Z,6056
2017-02-17T13:39:38.464Z,6116
2017-02-17T13:39:59.809Z,6304
2017-02-17T13:40:21.186Z,6488
2017-02-17T13:40:42.553Z,6808
2017-02-17T13:41:03.959Z,6724
2017-02-17T13:41:25.332Z,6564
2017-02-17T13:41:46.681Z,6836
2017-02-17T13:42:08.011Z,6884
2017-02-17T13:42:29.390Z,6840
2017-02-17T13:42:50.810Z,6884
2017-02-17T13:43:12.183Z,6756
2017-02-17T13:43:33.553Z,6900
2017-02-17T13:43:54.951Z,6904
2017-02-17T13:44:16.302Z,7048
2017-02-17T13:44:37.679Z,7228
2017-02-17T13:44:59.121Z,7444
2017-02-17T13:45:20.555Z,7824
2017-02-17T13:45:41.916Z,7816
2017-02-17T13:46:03.603Z,7816
2017-02-17T13:46:27.771Z,7708
2017-02-17T13:46:50.354Z,7588
2017-02-17T13:47:12.271Z,7160
2017-02-17T13:47:34.471Z,6832
2017-02-17T13:47:56.780Z,6504
2017-02-17T13:48:18.950Z,6320
2017-02-17T13:48:41.353Z,6104
2017-02-17T13:49:03.580Z,5920
2017-02-17T13:49:25.700Z,5704
2017-02-17T13:49:48.105Z,5660
2017-02-17T13:50:10.207Z,5784
2017-02-17T13:50:32.544Z,5760
2017-02-17T13:50:54.698Z,5612
2017-02-17T13:51:17.443Z,5688
2017-02-17T13:51:39.910Z,5824
2017-02-17T13:52:02.513Z,5936
2017-02-17T13:52:25.171Z,6048
2017-02-17T13:52:47.078Z,6168
2017-02-17T13:53:09.164Z,6316
2017-02-17T13:53:31.506Z,6476
2017-02-17T13:53:53.487Z,6788
2017-02-17T13:54:15.638Z,7184
2017-02-17T13:54:37.735Z,7768
2017-02-17T13:54:59.889Z,8072
2017-02-17T13:55:22.354Z,8152
2017-02-17T13:55:44.305Z,8248
2017-02-17T13:56:06.678Z,8408
2017-02-17T13:56:29.160Z,8596
2017-02-17T13:56:51.505Z,8724
2017-02-17T13:57:14.005Z,8788
2017-02-17T13:57:36.409Z,8364
2017-02-17T13:57:58.488Z,7884
2017-02-17T13:58:20.495Z,7160
2017-02-17T13:58:42.636Z,6464
2017-02-17T13:59:04.553Z,5864
2017-02-17T13:59:27.413Z,5468
2017-02-17T13:59:49.670Z,5252
2017-02-17T14:00:11.462Z,4792
2017-02-17T14:00:33.540Z,4872
2017-02-17T14:00:55.602Z,4568
2017-02-17T14:01:17.250Z,4516
2017-02-17T14:01:39.283Z,4468
2017-02-17T14:02:02.062Z,4428
2017-02-17T14:02:24.113Z,4432
2017-02-17T14:02:46.074Z,4524
2017-02-17T14:03:08.239Z,4720
2017-02-17T14:03:30.369Z,4824
2017-02-17T14:03:52.824Z,4808
2017-02-17T14:04:15.464Z,4832
2017-02-17T14:04:37.977Z,4740
2017-02-17T14:05:00.896Z,4508
2017-02-17T14:05:23.455Z,4528
2017-02-17T14:05:45.505Z,4512
2017-02-17T14:06:07.477Z,4508
2017-02-17T14:06:30.111Z,4452
2017-02-17T14:06:52.123Z,4420
2017-02-17T14:07:14.594Z,4360
2017-02-17T14:07:36.474Z,4168
2017-02-17T14:07:58.726Z,3916
2017-02-17T14:08:20.838Z,3624
2017-02-17T14:08:42.920Z,3320
2017-02-17T14:09:04.881Z,3184
2017-02-17T14:09:27.360Z,3112
2017-02-17T14:09:49.789Z,3216
2017-02-17T14:10:12.147Z,3300
2017-02-17T14:10:34.211Z,3184
2017-02-17T14:10:56.115Z,3068
2017-02-17T14:11:18.880Z,2860
2017-02-17T14:11:41.218Z,2944
2017-02-17T14:12:03.198Z,3188
2017-02-17T14:12:24.878Z,3672
2017-02-17T14:12:46.903Z,4224
2017-02-17T14:13:09.130Z,4516
2017-02-17T14:13:31.425Z,4696
2017-02-17T14:13:53.276Z,4468
2017-02-17T14:14:15.318Z,4132
2017-02-17T14:14:37.051Z,3932
2017-02-17T14:14:58.758Z,3752
2017-02-17T14:15:20.864Z,3652
2017-02-17T14:15:43.126Z,3572
2017-02-17T14:16:06.356Z,3508
2017-02-17T14:16:28.181Z,3344
2017-02-17T14:16:49.767Z,3012
2017-02-17T14:17:12.039Z,2788
2017-02-17T14:17:33.585Z,2676
2017-02-17T14:17:55.054Z,2680
2017-02-17T14:18:16.413Z,2608
2017-02-17T14:18:37.813Z,2536
2017-02-17T14:18:59.365Z,2292
2017-02-17T14:19:20.938Z,2252
2017-02-17T14:19:43.218Z,2180
2017-02-17T14:20:04.876Z,2076
2017-02-17T14:20:26.728Z,2028
2017-02-17T14:20:48.177Z,1940
2017-02-17T14:21:09.551Z,1856
2017-02-17T14:21:30.899Z,1760
2017-02-17T14:21:52.277Z,1648
2017-02-17T14:22:13.734Z,1556
2017-02-17T14:22:35.175Z,1460
2017-02-17T14:22:56.569Z,1388
2017-02-17T14:23:17.930Z,1320
2017-02-17T14:23:39.304Z,1436
2017-02-17T14:24:00.683Z,1712
2017-02-17T14:24:22.065Z,2104
2017-02-17T14:24:43.431Z,2488
2017-02-17T14:25:04.820Z,2776
2017-02-17T14:25:26.160Z,3036
2017-02-17T14:25:47.524Z,3240
2017-02-17T14:26:08.918Z,3492
2017-02-17T14:26:30.334Z,3784
2017-02-17T14:26:51.734Z,4088
2017-02-17T14:27:13.154Z,4400
2017-02-17T14:27:34.519Z,4668
2017-02-17T14:27:55.882Z,4836
2017-02-17T14:28:17.251Z,4932
2017-02-17T14:28:38.635Z,5012
2017-02-17T14:28:59.986Z,5056
2017-02-17T14:29:21.352Z,5016
2017-02-17T14:29:42.790Z,5016
2017-02-17T14:30:04.191Z,5040
2017-02-17T14:30:25.546Z,4924
2017-02-17T14:30:48.647Z,4660
2017-02-17T14:31:10.176Z,4556
2017-02-17T14:31:31.542Z,4568
2017-02-17T14:31:52.907Z,4240
2017-02-17T14:32:14.319Z,4176
2017-02-17T14:32:35.710Z,4184
2017-02-17T14:32:57.091Z,4092
2017-02-17T14:33:18.456Z,4028
2017-02-17T14:33:39.861Z,4036
2017-02-17T14:34:01.259Z,4008
2017-02-17T14:34:22.639Z,4164
2017-02-17T14:34:44.035Z,4244
2017-02-17T14:35:05.440Z,4324
2017-02-17T14:35:26.785Z,4324
2017-02-17T14:35:48.133Z,4460
2017-02-17T14:36:09.508Z,4440
2017-02-17T14:36:30.884Z,4552
2017-02-17T14:36:52.273Z,4748
2017-02-17T14:37:13.630Z,4968
2017-02-17T14:37:34.986Z,5104
2017-02-17T14:37:56.389Z,5052
2017-02-17T14:38:17.758Z,4812
2017-02-17T14:38:39.134Z,4704
2017-02-17T14:39:00.512Z,4852
2017-02-17T14:39:21.883Z,4956
2017-02-17T14:39:43.210Z,5204
2017-02-17T14:40:04.558Z,5616
2017-02-17T14:40:25.925Z,5756
2017-02-17T14:40:47.307Z,5988
2017-02-17T14:41:08.696Z,6496
2017-02-17T14:41:30.067Z,6668
2017-02-17T14:41:51.450Z,6780
2017-02-17T14:42:12.804Z,6740
2017-02-17T14:42:34.154Z,6604
2017-02-17T14:42:55.498Z,6484
2017-02-17T14:43:16.883Z,6304
2017-02-17T14:43:38.248Z,6000
2017-02-17T14:43:59.578Z,5804
2017-02-17T14:44:20.925Z,5544
2017-02-17T14:44:42.267Z,5200
2017-02-17T14:45:03.672Z,4928
2017-02-17T14:45:25.030Z,4792
2017-02-17T14:45:46.395Z,4716
2017-02-17T14:46:07.754Z,4704
2017-02-17T14:46:29.110Z,4536
2017-02-17T14:46:51.170Z,4320
2017-02-17T14:47:12.496Z,4140
2017-02-17T14:47:33.893Z,3864
2017-02-17T14:47:55.253Z,3680
2017-02-17T14:48:16.627Z,3496
2017-02-17T14:48:37.983Z,3252
2017-02-17T14:48:59.373Z,3228
2017-02-17T14:49:20.741Z,3192
2017-02-17T14:49:42.144Z,3304
2017-02-17T14:50:03.473Z,3156
2017-02-17T14:50:24.835Z,2880
2017-02-17T14:50:46.214Z,2580
2017-02-17T14:51:07.551Z,2324
2017-02-17T14:51:28.975Z,2080
2017-02-17T14:51:50.357Z,1952
2017-02-17T14:52:11.712Z,1872
2017-02-17T14:52:33.129Z,1780
2017-02-17T14:52:54.487Z,1720
2017-02-17T14:53:15.872Z,1668
2017-02-17T14:53:37.213Z,1632
2017-02-17T14:53:58.561Z,1660
2017-02-17T14:54:19.910Z,1732
2017-02-17T14:54:41.258Z,1808
2017-02-17T14:55:02.931Z,1852
2017-02-17T14:55:24.444Z,1820
2017-02-17T14:55:45.817Z,1736
2017-02-17T14:56:07.170Z,1624
2017-02-17T14:56:28.541Z,1460
2017-02-17T14:56:49.905Z,1268
2017-02-17T14:57:11.281Z,1032
2017-02-17T14:57:32.731Z,836
2017-02-17T14:57:54.108Z,736
2017-02-17T14:58:15.459Z,704
2017-02-17T14:58:36.821Z,700
2017-02-17T14:58:58.367Z,700
2017-02-17T14:59:19.799Z,680
2017-02-17T14:59:41.250Z,636
2017-02-17T15:00:03.167Z,576
2017-02-17T15:00:24.703Z,516
2017-02-17T15:00:46.058Z,484
2017-02-17T15:01:07.469Z,480
2017-02-17T15:01:28.845Z,480
2017-02-17T15:01:50.243Z,480
2017-02-17T15:02:11.639Z,488
2017-02-17T15:02:33.247Z,488
2017-02-17T15:02:54.772Z,480
2017-02-17T15:03:16.251Z,464
2017-02-17T15:03:37.689Z,464
2017-02-17T15:03:59.126Z,468
2017-02-17T15:04:20.573Z,460
2017-02-17T15:04:41.975Z,448
2017-02-17T15:05:03.306Z,452
2017-02-17T15:05:24.700Z,452
2017-02-17T15:05:46.060Z,456
2017-02-17T15:06:07.586Z,464
2017-02-17T15:06:29.919Z,472
2017-02-17T15:06:51.343Z,484
2017-02-17T15:07:12.764Z,496
2017-02-17T15:07:34.265Z,520
2017-02-17T15:07:55.673Z,552
2017-02-17T15:08:17.164Z,572
2017-02-17T15:08:38.607Z,580
2017-02-17T15:09:00.145Z,592
2017-02-17T15:09:21.681Z,608
2017-02-17T15:09:43.261Z,628
2017-02-17T15:10:04.847Z,660
2017-02-17T15:10:26.367Z,700
2017-02-17T15:10:47.758Z,732
2017-02-17T15:11:09.018Z,768
2017-02-17T15:11:31.629Z,804
2017-02-17T15:11:53.374Z,860
2017-02-17T15:12:15.881Z,936
2017-02-17T15:12:37.366Z,964
2017-02-17T15:13:02.308Z,924
2017-02-17T15:13:24.107Z,856
2017-02-17T15:13:45.961Z,824
2017-02-17T15:14:07.623Z,780
2017-02-17T15:14:29.671Z,740
2017-02-17T15:14:52.466Z,728
2017-02-17T15:15:14.198Z,748
2017-02-17T15:15:35.526Z,804
2017-02-17T15:15:57.333Z,868
2017-02-17T15:16:18.965Z,932
2017-02-17T15:16:41.611Z,968
2017-02-17T15:17:03.884Z,984
2017-02-17T15:17:25.816Z,976
2017-02-17T15:17:48.246Z,952
2017-02-17T15:18:10.958Z,936
2017-02-17T15:18:33.055Z,908
2017-02-17T15:18:54.919Z,896
2017-02-17T15:19:17.657Z,868
2017-02-17T15:19:39.519Z,812
2017-02-17T15:20:02.657Z,760
2017-02-17T15:20:25.215Z,740
2017-02-17T15:20:46.488Z,744
2017-02-17T15:21:08.106Z,744
2017-02-17T15:21:29.666Z,756
2017-02-17T15:21:51.283Z,776
2017-02-17T15:22:14.173Z,808
2017-02-17T15:22:36.050Z,824
2017-02-17T15:22:58.263Z,840
2017-02-17T15:23:19.940Z,836
2017-02-17T15:23:42.235Z,844
2017-02-17T15:24:03.921Z,868
2017-02-17T15:24:25.675Z,856
2017-02-17T15:24:47.856Z,812
2017-02-17T15:25:10.153Z,760
2017-02-17T15:25:31.971Z,732
2017-02-17T15:25:53.227Z,700
2017-02-17T15:26:15.649Z,660
2017-02-17T15:26:39.121Z,620
2017-02-17T15:27:00.857Z,608
2017-02-17T15:27:22.541Z,612
2017-02-17T15:27:44.362Z,688
2017-02-17T15:28:06.583Z,772
2017-02-17T15:28:28.641Z,848
2017-02-17T15:28:51.290Z,944
2017-02-17T15:29:13.368Z,984
2017-02-17T15:29:35.306Z,1016
2017-02-17T15:29:57.053Z,1020
2017-02-17T15:30:18.993Z,1012
2017-02-17T15:30:40.902Z,992
2017-02-17T15:31:02.756Z,988
2017-02-17T15:31:24.558Z,1000
2017-02-17T15:31:46.555Z,1016
2017-02-17T15:32:08.409Z,1060
2017-02-17T15:32:30.142Z,1096
2017-02-17T15:32:51.981Z,1120
2017-02-17T15:33:13.972Z,1140
2017-02-17T15:33:35.737Z,1144
2017-02-17T15:33:57.624Z,1140
2017-02-17T15:34:19.472Z,1136
2017-02-17T15:34:41.429Z,1112
2017-02-17T15:35:03.271Z,1080
2017-02-17T15:35:25.186Z,1040
2017-02-17T15:35:47.031Z,1020
2017-02-17T15:36:08.960Z,1028
2017-02-17T15:36:30.838Z,988
2017-02-17T15:36:52.857Z,976
2017-02-17T15:37:14.490Z,964
2017-02-17T15:37:36.393Z,960
2017-02-17T15:37:58.291Z,984
2017-02-17T15:38:20.194Z,976
2017-02-17T15:38:42.570Z,1012
2017-02-17T15:39:05.683Z,1036
2017-02-17T15:39:27.802Z,1044
2017-02-17T15:39:49.596Z,1060
2017-02-17T15:40:12.072Z,1092
2017-02-17T15:40:33.985Z,1128
2017-02-17T15:40:55.676Z,1152
2017-02-17T15:41:18.485Z,1156
2017-02-17T15:41:40.381Z,1124
2017-02-17T15:42:02.115Z,1080
2017-02-17T15:42:23.918Z,1048
2017-02-17T15:42:46.446Z,1008
2017-02-17T15:43:10.281Z,952
2017-02-17T15:43:32.743Z,876
2017-02-17T15:43:54.647Z,832
2017-02-17T15:44:17.271Z,796
2017-02-17T15:44:39.562Z,756
2017-02-17T15:45:01.203Z,732
2017-02-17T15:45:22.975Z,716
2017-02-17T15:45:44.404Z,712
2017-02-17T15:46:07.465Z,684
2017-02-17T15:46:30.770Z,632
2017-02-17T15:46:52.958Z,576
2017-02-17T15:47:15.510Z,532
2017-02-17T15:47:38.034Z,492
2017-02-17T15:48:00.605Z,444
2017-02-17T15:48:22.356Z,408
2017-02-17T15:48:44.163Z,380
2017-02-17T15:49:05.902Z,360
2017-02-17T15:49:27.574Z,336
2017-02-17T15:49:50.978Z,320
2017-02-17T15:50:13.185Z,300
2017-02-17T15:50:34.573Z,288
2017-02-17T15:50:56.135Z,288
2017-02-17T15:51:17.489Z,284
2017-02-17T15:51:39.086Z,276
2017-02-17T15:52:00.559Z,268
2017-02-17T15:52:22.033Z,264
2017-02-17T15:52:43.530Z,252
2017-02-17T15:53:05.087Z,244
2017-02-17T15:53:26.198Z,240
2017-02-17T15:53:47.678Z,236
2017-02-17T15:54:09.143Z,232
2017-02-17T15:54:30.617Z,220
2017-02-17T15:54:52.038Z,212
2017-02-17T15:55:13.512Z,212
2017-02-17T15:55:34.916Z,216
2017-02-17T15:55:56.418Z,220
2017-02-17T15:56:17.980Z,224
2017-02-17T15:56:39.527Z,232
2017-02-17T15:57:01.008Z,220
2017-02-17T15:57:22.478Z,212
2017-02-17T15:57:43.982Z,208
2017-02-17T15:58:05.507Z,212
2017-02-17T15:58:26.945Z,220
2017-02-17T15:58:48.393Z,216
2017-02-17T15:59:09.966Z,208
2017-02-17T15:59:31.475Z,200
2017-02-17T15:59:52.945Z,200
2017-02-17T16:00:14.530Z,208
2017-02-17T16:00:35.986Z,204
2017-02-17T16:00:57.659Z,196
2017-02-17T16:01:19.158Z,188
2017-02-17T16:01:40.658Z,180
2017-02-17T16:02:02.236Z,176
2017-02-17T16:02:23.797Z,164
2017-02-17T16:02:45.332Z,156
2017-02-17T16:03:06.860Z,144
2017-02-17T16:03:28.421Z,140
2017-02-17T16:03:49.984Z,136
2017-02-17T16:04:12.024Z,128
2017-02-17T16:04:34.272Z,128
2017-02-17T16:04:55.845Z,128
2017-02-17T16:05:17.281Z,128
2017-02-17T16:05:38.707Z,132
2017-02-17T16:06:00.178Z,124
2017-02-17T16:06:22.779Z,120
2017-02-17T16:06:44.277Z,116
2017-02-17T16:07:05.775Z,120
2017-02-17T16:07:27.332Z,120
2017-02-17T16:07:48.800Z,120
2017-02-17T16:08:10.321Z,112
2017-02-17T16:08:31.774Z,108
2017-02-17T16:08:53.278Z,112
2017-02-17T16:09:14.736Z,112
2017-02-17T16:09:37.008Z,112
2017-02-17T16:09:58.502Z,112
2017-02-17T16:10:19.999Z,108
2017-02-17T16:10:41.790Z,100
2017-02-17T16:11:03.296Z,96
2017-02-17T16:11:24.831Z,92
2017-02-17T16:11:46.316Z,92
2017-02-17T16:12:22.398Z,88
2017-02-17T16:12:43.833Z,88
2017-02-17T16:13:05.388Z,92
2017-02-17T16:13:26.896Z,88
2017-02-17T16:13:48.398Z,88
2017-02-17T16:14:10.395Z,84
2017-02-17T16:14:31.868Z,88
2017-02-17T16:14:53.371Z,88
2017-02-17T16:15:14.759Z,84
2017-02-17T16:15:36.112Z,80
2017-02-17T16:15:57.432Z,76
2017-02-17T16:16:18.754Z,76
2017-02-17T16:16:40.116Z,72
2017-02-17T16:17:01.475Z,64
2017-02-17T16:17:22.819Z,60
2017-02-17T16:17:44.168Z,64
2017-02-17T16:18:05.495Z,60
2017-02-17T16:18:26.818Z,64
2017-02-17T16:18:48.175Z,60
2017-02-17T16:19:09.518Z,60
2017-02-17T16:19:30.896Z,56
2017-02-17T16:19:52.264Z,56
2017-02-17T16:20:13.600Z,52
2017-02-17T16:20:34.968Z,52
2017-02-17T16:20:56.388Z,48
2017-02-17T16:21:17.731Z,52
2017-02-17T16:21:39.061Z,52
2017-02-17T16:22:00.444Z,52
2017-02-17T16:22:21.788Z,52
2017-02-17T16:22:43.175Z,52
2017-02-17T16:23:04.499Z,48
2017-02-17T16:23:25.862Z,48
2017-02-17T16:23:47.221Z,48
2017-02-17T16:24:08.562Z,48
2017-02-17T16:24:29.994Z,48
2017-02-17T16:24:51.336Z,48
2017-02-17T16:25:12.672Z,40
2017-02-17T16:25:33.992Z,36
2017-02-17T16:25:55.345Z,36
2017-02-17T16:26:16.668Z,32
2017-02-17T16:26:38.005Z,32
2017-02-17T16:26:59.354Z,32
2017-02-17T16:27:20.709Z,28
2017-02-17T16:27:42.113Z,24
2017-02-17T16:28:03.443Z,28
2017-02-17T16:28:24.812Z,24
2017-02-17T16:28:46.793Z,28
2017-02-17T16:29:08.161Z,24
2017-02-17T16:29:29.488Z,24
2017-02-17T16:29:50.879Z,20
2017-02-17T16:30:12.247Z,24
2017-02-17T16:30:33.728Z,24
2017-02-17T16:30:55.141Z,24
2017-02-17T16:31:16.505Z,20
2017-02-17T16:31:37.865Z,20
2017-02-17T16:31:59.230Z,20
2017-02-17T16:32:20.587Z,20
2017-02-17T16:32:41.993Z,16
2017-02-17T16:33:03.319Z,16
2017-02-17T16:33:24.658Z,16
2017-02-17T16:33:46.029Z,12
2017-02-17T16:34:07.380Z,12
2017-02-17T16:34:28.776Z,12
2017-02-17T16:34:50.144Z,8
2017-02-17T16:35:11.470Z,12
2017-02-17T16:35:32.838Z,8
2017-02-17T16:35:54.181Z,8
2017-02-17T16:36:15.527Z,8
2017-02-17T16:36:36.857Z,4
2017-02-17T16:36:58.196Z,8
2017-02-17T16:37:19.549Z,8
2017-02-17T16:37:40.883Z,4
2017-02-17T16:38:02.304Z,4
2017-02-17T16:38:23.626Z,8
2017-02-17T16:38:45.000Z,4
2017-02-17T16:39:06.370Z,4
2017-02-17T16:39:27.723Z,4
2017-02-17T16:39:49.071Z,4
2017-02-17T16:40:10.422Z,0
2017-02-17T16:40:31.800Z,4
2017-02-17T16:40:53.477Z,4
2017-02-17T16:41:14.802Z,0
2017-02-17T16:41:36.188Z,0
2017-02-17T16:41:57.547Z,0
2017-02-17T16:42:18.888Z,0
2017-02-17T16:42:40.252Z,0
2017-02-17T16:43:01.659Z,0
2017-02-17T16:43:23.016Z,4
2017-02-17T16:43:44.336Z,4
2017-02-17T16:44:05.712Z,4
2017-02-17T16:44:27.594Z,4
2017-02-17T16:44:48.959Z,4
2017-02-17T16:45:10.327Z,0
2017-02-17T16:45:31.669Z,0
2017-02-17T16:45:53.051Z,0
2017-02-17T16:46:14.404Z,0
2017-02-17T16:46:35.832Z,0
2017-02-17T16:46:57.197Z,0
2017-02-17T16:47:18.520Z,4
2017-02-17T16:47:39.882Z,4
2017-02-17T16:48:01.222Z,4
2017-02-17T16:48:22.609Z,4
2017-02-17T16:48:43.989Z,0
2017-02-17T16:49:05.313Z,0
2017-02-17T16:49:26.674Z,0
2017-02-17T16:49:48.041Z,0
2017-02-17T16:50:09.380Z,0
2017-02-17T16:50:30.745Z,0
2017-02-17T16:50:52.125Z,0
2017-02-17T16:51:13.469Z,0
2017-02-17T16:51:34.830Z,0
2017-02-17T16:51:56.257Z,0
2017-02-17T16:52:17.652Z,0
2017-02-17T16:52:39.023Z,0
2017-02-17T16:53:00.418Z,0
2017-02-17T16:53:21.739Z,0
2017-02-17T16:53:43.110Z,0
2017-02-17T16:54:04.471Z,0
2017-02-17T16:54:25.860Z,0
2017-02-17T16:54:47.199Z,0
2017-02-17T16:55:08.536Z,0
2017-02-17T16:55:29.874Z,0
2017-02-17T16:55:51.225Z,0
2017-02-17T16:56:12.654Z,0
2017-02-17T16:56:34.017Z,0
2017-02-17T16:56:55.387Z,0
2017-02-17T16:57:16.745Z,0
2017-02-17T16:57:38.087Z,0
2017-02-17T16:57:59.455Z,0
2017-02-17T16:58:20.789Z,0
2017-02-17T16:58:42.672Z,0
2017-02-17T16:59:04.017Z,0
2017-02-17T16:59:25.358Z,0
2017-02-17T16:59:46.694Z,0
2017-02-17T17:00:08.074Z,0
2017-02-17T17:00:29.440Z,0
2017-02-17T17:00:50.791Z,0
2017-02-17T17:01:12.243Z,0
2017-02-17T17:01:33.657Z,0
2017-02-17T17:01:55.021Z,0
2017-02-17T17:02:16.377Z,0
2017-02-17T17:02:37.757Z,0
2017-02-17T17:02:59.607Z,0
2017-02-17T17:03:20.950Z,0
2017-02-17T17:03:42.269Z,0
2017-02-17T17:04:03.624Z,0
2017-02-17T17:04:24.978Z,0
2017-02-17T17:04:46.746Z,0
2017-02-17T17:05:09.164Z,0
2017-02-17T17:05:32.713Z,0
2017-02-17T17:05:54.641Z,0
2017-02-17T17:06:15.988Z,0
2017-02-17T17:06:37.539Z,0
2017-02-17T17:06:59.113Z,0
2017-02-17T17:07:20.611Z,0
2017-02-17T17:07:42.137Z,0
2017-02-17T17:08:04.436Z,0
2017-02-17T17:08:30.365Z,0
2017-02-17T17:08:58.943Z,0
2017-02-17T17:09:24.982Z,0
2017-02-17T17:09:59.415Z,0
2017-02-17T17:10:29.723Z,0
2017-02-17T17:10:54.486Z,0
2017-02-17T17:11:16.149Z,0
2017-02-17T17:11:37.513Z,0
2017-02-17T17:11:58.859Z,0
2017-02-17T17:12:20.209Z,0
2017-02-17T17:12:41.646Z,0
2017-02-17T17:13:03.026Z,0
2017-02-17T17:13:24.385Z,0
2017-02-17T17:13:45.766Z,0
2017-02-17T17:14:07.124Z,0
2017-02-17T17:14:28.492Z,0
2017-02-17T17:14:49.897Z,0
2017-02-17T17:15:11.307Z,0
2017-02-17T17:15:32.642Z,0
2017-02-17T17:15:54.008Z,0
2017-02-17T17:16:15.421Z,0
2017-02-17T17:16:36.811Z,0
2017-02-17T17:16:58.167Z,0
2017-02-17T17:17:19.596Z,0
2017-02-17T17:17:41.102Z,0
2017-02-17T17:18:02.704Z,0
2017-02-17T17:18:24.209Z,0
2017-02-17T17:18:45.825Z,0
2017-02-17T17:19:07.466Z,0
2017-02-17T17:19:28.976Z,0
2017-02-17T17:19:50.462Z,0
2017-02-17T17:20:11.938Z,0
2017-02-17T17:20:33.342Z,0
2017-02-17T17:20:54.684Z,0
2017-02-17T17:21:16.708Z,0
2017-02-17T17:21:38.145Z,0
2017-02-17T17:22:00.321Z,0
2017-02-17T17:22:21.897Z,0
2017-02-17T17:22:43.372Z,0
2017-02-17T17:23:04.924Z,0
2017-02-17T17:23:26.404Z,0
2017-02-17T17:23:47.878Z,0
2017-02-17T17:24:09.321Z,0
2017-02-17T17:24:30.797Z,0
2017-02-17T17:24:52.303Z,0
2017-02-17T17:25:13.856Z,0
2017-02-17T17:25:35.708Z,0
2017-02-17T17:25:57.179Z,0
2017-02-17T17:26:18.669Z,0
2017-02-17T17:26:40.209Z,0
2017-02-17T17:27:01.761Z,0
2017-02-17T17:27:23.279Z,0
2017-02-17T17:27:44.769Z,0
2017-02-17T17:28:06.289Z,0
2017-02-17T17:28:27.821Z,0
2017-02-17T17:28:49.269Z,0
2017-02-17T17:29:10.756Z,0
2017-02-17T17:29:32.273Z,0
2017-02-17T17:29:53.694Z,0
2017-02-17T17:30:15.065Z,0
2017-02-17T17:30:36.434Z,0
2017-02-17T17:30:57.797Z,0
2017-02-17T17:31:19.134Z,0
2017-02-17T17:31:40.452Z,0
2017-02-17T17:32:01.794Z,0
2017-02-17T17:32:23.165Z,0
2017-02-17T17:32:44.505Z,0
2017-02-17T17:33:05.877Z,0
2017-02-17T17:33:27.252Z,0
2017-02-17T17:33:48.695Z,0
2017-02-17T17:34:10.245Z,0
2017-02-17T17:34:31.589Z,0
2017-02-17T17:34:52.979Z,0
2017-02-17T17:35:14.446Z,0
2017-02-17T17:35:35.929Z,0
2017-02-17T17:35:57.502Z,0
2017-02-17T17:36:19.074Z,0
2017-02-17T17:36:40.603Z,0
2017-02-17T17:37:02.164Z,0
2017-02-17T17:37:23.587Z,0
2017-02-17T17:37:45.069Z,0
2017-02-17T17:38:06.524Z,0
2017-02-17T17:38:27.991Z,0
2017-02-17T17:38:49.433Z,0
2017-02-17T17:39:10.896Z,0
2017-02-17T17:39:32.245Z,0
2017-02-17T17:39:53.630Z,0
2017-02-17T17:40:15.008Z,0
2017-02-17T17:40:36.403Z,0
2017-02-17T17:40:57.757Z,0
2017-02-17T17:41:19.106Z,0
2017-02-17T17:41:40.478Z,0
2017-02-17T17:42:02.358Z,0
2017-02-17T17:42:23.965Z,0
2017-02-17T17:42:45.398Z,0
2017-02-17T17:43:07.078Z,0
2017-02-17T17:43:28.699Z,0
2017-02-17T17:43:50.094Z,0
2017-02-17T17:44:11.744Z,0
2017-02-17T17:44:33.200Z,0
2017-02-17T17:44:54.716Z,0
2017-02-17T17:45:16.381Z,0
2017-02-17T17:45:37.817Z,0
2017-02-17T17:45:59.174Z,0
2017-02-17T17:46:21.312Z,0
2017-02-17T17:46:42.769Z,0
2017-02-17T17:47:04.183Z,0
2017-02-17T17:47:25.585Z,0
2017-02-17T17:47:47.041Z,0
2017-02-17T17:48:08.530Z,0
2017-02-17T17:48:30.086Z,0
2017-02-17T17:48:51.562Z,0
2017-02-17T17:49:12.952Z,0
2017-02-17T17:49:34.375Z,0
2017-02-17T17:49:55.935Z,0
2017-02-17T17:50:17.376Z,0
2017-02-17T17:50:39.177Z,0
2017-02-17T17:51:00.596Z,0
2017-02-17T17:51:22.084Z,0
2017-02-17T17:51:43.542Z,0
2017-02-17T17:52:04.962Z,0
2017-02-17T17:52:26.348Z,0
2017-02-17T17:52:47.787Z,0
2017-02-17T17:53:09.301Z,0
2017-02-17T17:53:30.665Z,0
2017-02-17T17:53:52.091Z,0
2017-02-17T17:54:13.530Z,0
2017-02-17T17:54:35.662Z,0
2017-02-17T17:54:57.147Z,0
2017-02-17T17:55:18.638Z,0
2017-02-17T17:55:40.137Z,0
2017-02-17T17:56:01.580Z,0
2017-02-17T17:56:22.991Z,0